Time;durP1;ratioP1;P1;durP2;ratioP2;P2;SDS_P1;SDS_P2;PMS_P1;PMS_P2;Temp;Humidity;BMP_temperature;BMP_pressure;BME280_temperature;BME280_humidity;BME280_pressure;Samples;Min_cycle;Max_cycle;Signal;HPM_P1;HPM_P2
2023/09/04 00:00:19;;;;;;;;;18.00;16.00;;;;;24.06;61.69;102067.91;5081188;27;67373;-59
2023/09/04 00:02:46;;;;;;;;;19.33;18.33;;;;;24.03;62.64;102062.75;5080181;27;46312;-59
2023/09/04 00:05:11;;;;;;;;;17.00;14.33;;;;;24.01;62.06;102058.44;5074609;27;45637;-59
2023/09/04 00:07:37;;;;;;;;;16.33;16.33;;;;;23.98;62.58;102056.00;5092403;27;65212;-59
2023/09/04 00:10:03;;;;;;;;;19.00;17.00;;;;;23.95;62.56;102068.84;5089622;27;61166;-59
2023/09/04 00:12:29;;;;;;;;;19.00;17.00;;;;;23.94;62.53;102074.44;5069823;27;46326;-59
2023/09/04 00:14:54;;;;;;;;;17.67;16.00;;;;;23.94;62.64;102069.84;5091161;27;45378;-59
2023/09/04 00:17:20;;;;;;;;;18.67;17.00;;;;;23.93;62.72;102069.97;5087460;27;69810;-60
2023/09/04 00:19:46;;;;;;;;;19.00;17.33;;;;;23.91;63.25;102061.97;5088377;27;45469;-59
2023/09/04 00:22:12;;;;;;;;;16.33;16.33;;;;;23.89;62.82;102063.06;5089975;27;46054;-59
2023/09/04 00:24:37;;;;;;;;;19.33;17.33;;;;;23.87;62.97;102059.59;5088138;27;45528;-59
2023/09/04 00:27:03;;;;;;;;;16.33;16.33;;;;;23.85;63.17;102054.31;5090735;27;45500;-59
2023/09/04 00:29:28;;;;;;;;;15.00;15.00;;;;;23.82;63.19;102051.88;5089392;27;45676;-59
2023/09/04 00:31:53;;;;;;;;;16.00;13.67;;;;;23.77;63.20;102051.41;5089680;27;71203;-59
2023/09/04 00:34:19;;;;;;;;;18.00;16.33;;;;;23.72;63.78;102049.09;5092291;27;55985;-59
2023/09/04 00:36:44;;;;;;;;;14.00;12.00;;;;;23.67;63.67;102045.91;5083994;27;67502;-59
2023/09/04 00:39:09;;;;;;;;;16.33;14.67;;;;;23.61;63.37;102036.44;5081275;27;45483;-59
2023/09/04 00:41:35;;;;;;;;;13.33;12.33;;;;;23.57;63.73;102045.84;5083567;27;46702;-59
2023/09/04 00:44:00;;;;;;;;;21.33;16.00;;;;;23.54;63.61;102043.38;5088094;27;57285;-59
2023/09/04 00:46:25;;;;;;;;;14.00;11.00;;;;;23.50;64.45;102039.22;5089497;27;66992;-60
2023/09/04 00:48:51;;;;;;;;;14.00;13.67;;;;;23.47;64.02;102034.06;5079358;27;45658;-59
2023/09/04 00:51:17;;;;;;;;;14.00;13.33;;;;;23.44;64.00;102035.19;5094463;27;70230;-59
2023/09/04 00:53:42;;;;;;;;;13.00;13.00;;;;;23.40;64.49;102039.16;5083209;27;45698;-59
2023/09/04 00:56:12;;;;;;;;;17.67;15.00;;;;;23.36;64.37;102040.44;5085367;27;45429;-59
2023/09/04 00:58:37;;;;;;;;;12.67;11.67;;;;;23.32;64.71;102040.81;5086918;27;45791;-59
2023/09/04 01:01:03;;;;;;;;;15.00;13.67;;;;;23.27;64.92;102039.34;5084668;27;73587;-59
2023/09/04 01:03:30;;;;;;;;;17.00;16.00;;;;;23.24;64.43;102042.31;5080403;27;45365;-59
2023/09/04 01:05:55;;;;;;;;;15.67;13.67;;;;;23.22;65.27;102041.59;5083282;27;45852;-59
2023/09/04 01:08:21;;;;;;;;;16.33;15.00;;;;;23.20;65.00;102037.28;5085029;27;45418;-60
2023/09/04 01:10:48;;;;;;;;;16.00;16.00;;;;;23.19;64.82;102041.81;5087225;27;75402;-59
2023/09/04 01:13:26;;;;;;;;;15.00;14.67;;;;;23.16;65.63;102041.25;5081324;27;46031;-59
2023/09/04 01:15:51;;;;;;;;;15.00;14.67;;;;;23.11;66.10;102038.88;5068453;27;45431;-59
2023/09/04 01:18:17;;;;;;;;;18.00;15.67;;;;;23.08;65.33;102036.44;5067801;27;45402;-60
2023/09/04 01:20:43;;;;;;;;;13.00;13.00;;;;;23.00;65.76;102036.19;5064851;27;45435;-59
2023/09/04 01:23:08;;;;;;;;;11.33;11.33;;;;;22.97;65.62;102034.59;5088127;27;72082;-59
2023/09/04 01:25:52;;;;;;;;;12.00;12.00;;;;;22.95;65.93;102025.75;5088566;27;45431;-59
2023/09/04 01:28:23;;;;;;;;;15.33;14.00;;;;;22.94;65.95;102027.63;5091044;27;45354;-59
2023/09/04 01:31:03;;;;;;;;;14.00;13.33;;;;;22.94;65.82;102021.31;5091023;27;46263;-59
2023/09/04 01:33:40;;;;;;;;;12.33;12.33;;;;;22.93;66.13;102023.16;5070970;27;45583;-59
2023/09/04 01:36:07;;;;;;;;;17.33;12.33;;;;;22.92;66.15;102018.72;5069841;27;45441;-59
2023/09/04 01:38:34;;;;;;;;;12.00;12.00;;;;;22.90;66.37;102012.56;5065147;28;45579;-59
2023/09/04 01:41:03;;;;;;;;;14.33;13.00;;;;;22.86;66.37;102016.53;5090563;27;47575;-59
2023/09/04 01:43:29;;;;;;;;;14.00;12.33;;;;;22.83;66.84;102011.38;5085670;27;45471;-60
2023/09/04 01:45:54;;;;;;;;;17.67;17.00;;;;;22.81;65.95;102010.63;5094409;27;45544;-59
2023/09/04 01:48:19;;;;;;;;;22.00;20.00;;;;;22.79;66.29;102012.63;5085313;27;65795;-59
2023/09/04 01:50:45;;;;;;;;;25.00;21.33;;;;;22.78;66.65;102013.59;5084045;27;50719;-59
2023/09/04 01:53:10;;;;;;;;;30.00;25.67;;;;;22.76;66.65;102013.72;5090730;27;45346;-59
2023/09/04 01:55:36;;;;;;;;;22.33;17.33;;;;;22.74;66.66;102012.13;5090765;27;54550;-62
2023/09/04 01:58:01;;;;;;;;;20.67;18.00;;;;;22.71;66.46;101998.81;5097954;27;45590;-59
2023/09/04 02:00:27;;;;;;;;;13.00;13.00;;;;;22.69;66.85;102004.38;5085059;27;46170;-58
2023/09/04 02:02:52;;;;;;;;;18.33;18.33;;;;;22.66;66.77;101992.91;5093989;27;69687;-58
2023/09/04 02:05:17;;;;;;;;;16.67;16.67;;;;;22.65;67.05;101983.91;5093994;27;50175;-58
2023/09/04 02:07:43;;;;;;;;;22.67;17.67;;;;;22.63;67.00;101975.03;5087777;27;56632;-58
2023/09/04 02:10:08;;;;;;;;;19.00;17.00;;;;;22.61;66.95;101971.63;5095536;27;72503;-59
2023/09/04 02:12:34;;;;;;;;;20.00;19.00;;;;;22.60;66.86;101972.59;5093962;27;45369;-59
2023/09/04 02:14:59;;;;;;;;;21.67;19.67;;;;;22.56;66.88;101968.41;5088238;27;45493;-58
2023/09/04 02:17:24;;;;;;;;;19.00;14.00;;;;;22.52;66.87;101966.97;5090477;27;66205;-58
2023/09/04 02:19:50;;;;;;;;;38.67;32.33;;;;;22.48;67.31;101960.06;5097416;27;74747;-58
2023/09/04 02:22:15;;;;;;;;;25.67;23.00;;;;;22.44;67.45;101956.75;5099065;27;70065;-59
2023/09/04 02:24:42;;;;;;;;;38.67;33.33;;;;;22.42;67.38;101966.84;5094515;27;58234;-58
2023/09/04 02:27:07;;;;;;;;;31.33;30.67;;;;;22.40;67.27;101966.97;5096702;27;45533;-59
2023/09/04 02:29:32;;;;;;;;;50.67;42.67;;;;;22.39;67.14;101969.81;5091457;27;46462;-59
2023/09/04 02:31:58;;;;;;;;;53.00;39.33;;;;;22.35;67.13;101971.03;5093863;27;69868;-59
2023/09/04 02:34:23;;;;;;;;;59.67;47.67;;;;;22.30;67.35;101958.69;5088958;27;49572;-59
2023/09/04 02:36:48;;;;;;;;;62.50;49.75;;;;;22.26;67.29;101959.94;5090935;27;45707;-58
2023/09/04 02:39:14;;;;;;;;;56.33;44.00;;;;;22.23;67.68;101957.50;5085505;27;65069;-58
2023/09/04 02:41:39;;;;;;;;;56.00;42.33;;;;;22.21;67.82;101943.19;5073727;27;49858;-58
2023/09/04 02:44:04;;;;;;;;;40.67;32.67;;;;;22.19;67.54;101945.19;5084131;27;47917;-58
2023/09/04 02:46:32;;;;;;;;;34.00;31.33;;;;;22.16;67.96;101950.84;5093771;27;45550;-58
2023/09/04 02:48:57;;;;;;;;;31.67;28.00;;;;;22.13;68.02;101942.97;5093016;27;47152;-58
2023/09/04 02:51:23;;;;;;;;;16.33;16.33;;;;;22.10;67.70;101935.94;5089375;27;45378;-58
2023/09/04 02:53:49;;;;;;;;;18.00;16.67;;;;;22.06;68.30;101942.59;5088689;27;45479;-58
2023/09/04 02:56:14;;;;;;;;;16.67;14.67;;;;;22.03;68.49;101942.00;5100093;27;45485;-58
2023/09/04 02:58:39;;;;;;;;;15.33;11.00;;;;;21.98;68.17;101940.50;5072658;28;66864;-58
2023/09/04 03:01:05;;;;;;;;;12.00;12.00;;;;;21.95;68.75;101945.31;5095039;27;71561;-58
2023/09/04 03:03:30;;;;;;;;;18.00;12.33;;;;;21.92;68.69;101946.41;5092483;27;61198;-58
2023/09/04 03:05:55;;;;;;;;;11.67;10.33;;;;;21.88;68.66;101942.25;5093355;27;67230;-58
2023/09/04 03:08:21;;;;;;;;;12.00;12.00;;;;;21.87;68.34;101940.50;5088578;27;45922;-58
2023/09/04 03:10:46;;;;;;;;;5.67;5.33;;;;;21.86;68.71;101949.63;5086431;27;71485;-58
2023/09/04 03:13:11;;;;;;;;;13.67;12.67;;;;;21.83;68.78;101949.03;5088422;27;66496;-59
2023/09/04 03:15:36;;;;;;;;;13.67;12.00;;;;;21.80;68.94;101953.69;5062001;28;68024;-58
2023/09/04 03:18:02;;;;;;;;;14.00;11.67;;;;;21.78;68.91;101941.25;5090218;27;53380;-58
2023/09/04 03:20:28;;;;;;;;;15.00;13.00;;;;;21.75;69.11;101939.66;5084355;27;45430;-58
2023/09/04 03:22:53;;;;;;;;;15.67;14.33;;;;;21.73;69.23;101933.50;5100060;27;45544;-58
2023/09/04 03:25:18;;;;;;;;;13.00;9.67;;;;;21.75;69.41;101933.38;5087239;27;55709;-58
2023/09/04 03:27:43;;;;;;;;;14.50;13.50;;;;;21.73;69.43;101929.94;5086422;27;74259;-58
2023/09/04 03:30:10;;;;;;;;;10.50;10.00;;;;;21.71;69.60;101929.22;5093153;27;73376;-58
2023/09/04 03:32:35;;;;;;;;;12.25;11.00;;;;;;;;5077870;27;45797;-58
2023/09/04 03:35:01;;;;;;;;;12.00;12.00;;;;;21.66;69.58;101917.88;5092209;27;45462;-58
2023/09/04 03:37:26;;;;;;;;;12.33;10.33;;;;;21.66;69.54;101920.59;5095651;27;45757;-59
2023/09/04 03:39:51;;;;;;;;;17.00;14.00;;;;;21.62;69.15;101917.25;5094210;27;45469;-58
2023/09/04 03:42:17;;;;;;;;;9.00;9.00;;;;;21.60;69.28;101928.22;5091784;27;59055;-58
2023/09/04 03:44:43;;;;;;;;;11.33;11.00;;;;;21.60;69.83;101924.63;5086172;27;45620;-58
2023/09/04 03:47:09;;;;;;;;;13.00;11.33;;;;;21.58;69.88;101924.75;5079424;27;62283;-59
2023/09/04 03:49:35;;;;;;;;;12.00;11.00;;;;;21.55;69.52;101929.53;5087834;27;45714;-58
2023/09/04 03:52:00;;;;;;;;;12.00;12.00;;;;;21.53;69.60;101928.78;5084278;27;63697;-58
2023/09/04 03:54:25;;;;;;;;;12.67;12.00;;;;;21.50;69.90;101935.31;5091685;27;69454;-58
2023/09/04 03:56:51;;;;;;;;;15.00;13.33;;;;;21.48;69.80;101929.13;5083125;27;68820;-58
2023/09/04 03:59:16;;;;;;;;;10.67;10.33;;;;;21.46;69.76;101928.41;5069501;27;68229;-58
2023/09/04 04:01:43;;;;;;;;;12.33;11.00;;;;;21.44;69.66;101935.78;5088301;27;45692;-58
2023/09/04 04:04:10;;;;;;;;;13.00;13.00;;;;;21.41;70.41;101936.03;5089703;27;45592;-58
2023/09/04 04:06:35;;;;;;;;;16.00;13.67;;;;;21.39;69.94;101936.13;5077406;27;46316;-58
2023/09/04 04:09:03;;;;;;;;;15.67;15.00;;;;;21.36;70.04;101928.25;5087634;27;69010;-58
2023/09/04 04:11:28;;;;;;;;;12.33;12.33;;;;;21.33;70.07;101923.09;5089510;27;45344;-58
2023/09/04 04:13:53;;;;;;;;;14.00;14.00;;;;;21.30;70.32;101915.19;5095449;27;45441;-58
2023/09/04 04:16:19;;;;;;;;;17.00;13.00;;;;;21.27;70.66;101919.00;5088492;27;53725;-58
2023/09/04 04:18:44;;;;;;;;;16.00;13.00;;;;;21.24;70.06;101913.84;5089604;27;71721;-58
2023/09/04 04:21:09;;;;;;;;;15.33;14.00;;;;;21.20;70.18;101920.47;5094327;27;45659;-58
2023/09/04 04:23:35;;;;;;;;;16.67;14.67;;;;;21.17;70.40;101918.00;5087652;27;47444;-58
2023/09/04 04:26:00;;;;;;;;;16.33;13.33;;;;;21.17;70.94;101917.16;5098328;27;46131;-58
2023/09/04 04:28:26;;;;;;;;;13.33;12.00;;;;;21.13;71.14;101913.81;5095443;27;45401;-58
2023/09/04 04:30:51;;;;;;;;;15.00;12.67;;;;;21.10;70.78;101927.59;5096363;27;45334;-58
2023/09/04 04:33:17;;;;;;;;;14.00;11.00;;;;;21.07;70.46;101933.25;5083444;27;45626;-58
2023/09/04 04:35:43;;;;;;;;;16.00;12.00;;;;;21.06;70.88;101928.81;5093507;27;45691;-58
2023/09/04 04:38:09;;;;;;;;;9.67;9.67;;;;;21.04;71.23;101922.63;5091306;27;45343;-58
2023/09/04 04:40:38;;;;;;;;;11.67;11.00;;;;;21.01;70.81;101921.03;5093875;27;45512;-58
2023/09/04 04:43:04;;;;;;;;;10.75;9.25;;;;;20.98;70.72;101916.72;5074866;27;45410;-58
2023/09/04 04:45:29;;;;;;;;;9.00;9.00;;;;;20.94;70.61;101920.66;5085738;27;55160;-58
2023/09/04 04:47:54;;;;;;;;;11.00;10.67;;;;;20.91;71.63;101918.19;5082677;27;45485;-58
2023/09/04 04:50:20;;;;;;;;;14.50;10.00;;;;;20.90;70.84;101916.47;5080971;27;45406;-58
2023/09/04 04:52:46;;;;;;;;;9.67;9.67;;;;;20.88;70.74;101915.69;5091736;27;45875;-58
2023/09/04 04:55:11;;;;;;;;;13.00;10.33;;;;;20.88;71.04;101915.69;5083971;27;46242;-58
2023/09/04 04:57:37;;;;;;;;;10.67;10.67;;;;;20.87;70.85;101919.41;5086671;27;45424;-58
2023/09/04 05:00:07;;;;;;;;;13.00;12.00;;;;;20.85;70.97;101913.25;5080701;27;45489;-58
2023/09/04 05:02:33;;;;;;;;;9.00;9.00;;;;;20.84;71.24;101916.91;5078345;27;45833;-58
2023/09/04 05:04:58;;;;;;;;;10.00;10.00;;;;;20.82;71.27;101919.75;5090589;27;46116;-58
2023/09/04 05:07:23;;;;;;;;;5.67;4.00;;;;;20.82;71.08;101922.44;5087709;27;70103;-58
2023/09/04 05:09:52;;;;;;;;;14.00;11.00;;;;;20.82;71.42;101917.03;5083247;27;45494;-58
2023/09/04 05:12:18;;;;;;;;;12.00;12.00;;;;;20.81;71.17;101919.88;5091409;27;45608;-58
2023/09/04 05:14:43;;;;;;;;;7.00;7.00;;;;;20.79;71.34;101917.28;5084620;27;45934;-58
2023/09/04 05:17:09;;;;;;;;;12.33;12.00;;;;;20.80;71.79;101928.94;5089237;27;67981;-58
2023/09/04 05:19:34;;;;;;;;;11.00;9.33;;;;;20.80;71.00;101929.81;5086468;27;64359;-58
2023/09/04 05:21:59;;;;;;;;;9.67;9.00;;;;;20.81;71.01;101930.69;5091073;27;62645;-58
2023/09/04 05:24:24;;;;;;;;;10.00;10.00;;;;;20.81;71.47;101934.22;5077301;27;67355;-58
2023/09/04 05:26:50;;;;;;;;;12.00;12.00;;;;;20.80;71.41;101931.66;5069762;27;70945;-58
2023/09/04 05:29:15;;;;;;;;;11.33;10.67;;;;;20.80;71.11;101927.09;5066169;27;45653;-59
2023/09/04 05:31:41;;;;;;;;;11.33;9.67;;;;;20.80;71.48;101923.53;5090294;27;70192;-58
2023/09/04 05:34:06;;;;;;;;;10.33;9.67;;;;;20.81;70.94;101918.00;5101175;27;45291;-58
2023/09/04 05:36:31;;;;;;;;;9.67;9.33;;;;;20.84;70.80;101916.91;5085482;27;45359;-58
2023/09/04 05:38:56;;;;;;;;;11.33;11.00;;;;;20.84;71.22;101913.38;5083242;27;65999;-58
2023/09/04 05:41:22;;;;;;;;;10.67;10.00;;;;;20.85;70.49;101923.22;5088278;27;62548;-59
2023/09/04 05:43:47;;;;;;;;;9.33;9.33;;;;;20.85;71.08;101929.47;5085392;27;45941;-58
2023/09/04 05:46:12;;;;;;;;;9.67;9.67;;;;;20.85;70.29;101929.47;5082356;27;70911;-58
2023/09/04 05:48:38;;;;;;;;;11.00;11.00;;;;;20.86;70.86;101930.31;5083688;27;62225;-58
2023/09/04 05:51:03;;;;;;;;;10.67;10.67;;;;;20.88;70.47;101928.38;5087654;27;45519;-57
2023/09/04 05:53:29;;;;;;;;;10.67;9.33;;;;;20.89;70.68;101936.34;5076506;27;45482;-57
2023/09/04 05:56:09;;;;;;;;;14.33;14.33;;;;;20.86;70.58;101939.31;5080053;27;45454;-58
2023/09/04 05:58:46;;;;;;;;;18.33;11.67;;;;;20.86;70.51;101941.13;5087723;27;45463;-59
2023/09/04 06:01:12;;;;;;;;;12.00;12.00;;;;;20.87;70.65;101941.03;5087482;27;45338;-58
2023/09/04 06:03:39;;;;;;;;;12.67;12.33;;;;;20.93;70.41;101953.22;5083378;27;45518;-58
2023/09/04 06:06:04;;;;;;;;;12.33;11.33;;;;;20.96;70.07;101945.75;5087689;27;45531;-58
2023/09/04 06:08:30;;;;;;;;;12.67;12.67;;;;;21.03;70.20;101935.31;5082625;27;45409;-58
2023/09/04 06:10:56;;;;;;;;;12.67;11.67;;;;;21.08;70.23;101948.47;5085331;27;46412;-58
2023/09/04 06:13:21;;;;;;;;;13.67;11.67;;;;;21.11;69.75;101938.28;5086177;27;45635;-58
2023/09/04 06:15:49;;;;;;;;;14.67;13.33;;;;;21.15;70.08;101939.75;5088482;27;70289;-58
2023/09/04 06:18:15;;;;;;;;;11.33;10.00;;;;;21.22;69.39;101944.69;5094817;27;45349;-59
2023/09/04 06:20:40;;;;;;;;;15.67;13.00;;;;;21.36;69.47;101935.53;5069233;28;49062;-59
2023/09/04 06:23:06;;;;;;;;;10.00;9.67;;;;;22.00;68.82;101939.53;5080693;27;47255;-59
2023/09/04 06:25:32;;;;;;;;;14.00;12.33;;;;;22.78;67.16;101943.09;5086764;27;45353;-59
2023/09/04 06:27:57;;;;;;;;;18.00;15.33;;;;;23.08;65.29;101946.91;5085550;27;46413;-59
2023/09/04 06:30:23;;;;;;;;;11.33;11.00;;;;;23.59;65.14;101945.25;5086211;27;68218;-60
2023/09/04 06:32:48;;;;;;;;;10.00;9.00;;;;;26.44;63.10;101948.78;5085873;27;46389;-60
2023/09/04 06:35:14;;;;;;;;;11.33;11.33;;;;;29.52;55.55;101950.78;5069699;27;68155;-60
2023/09/04 06:37:40;;;;;;;;;11.33;10.67;;;;;32.12;50.45;101942.00;5088904;27;45468;-60
2023/09/04 06:40:06;;;;;;;;;12.33;12.33;;;;;34.25;42.86;101940.31;5097439;27;45800;-61
2023/09/04 06:42:31;;;;;;;;;14.00;12.33;;;;;35.72;40.98;101942.34;5081888;27;46502;-61
2023/09/04 06:44:57;;;;;;;;;14.50;13.75;;;;;36.64;38.89;101944.91;5069164;27;66282;-61
2023/09/04 06:47:22;;;;;;;;;11.00;11.00;;;;;37.56;35.04;101944.34;5090313;27;57055;-61
2023/09/04 06:49:47;;;;;;;;;12.00;12.00;;;;;38.56;34.65;101944.13;5082399;27;45477;-61
2023/09/04 06:52:13;;;;;;;;;12.50;9.50;;;;;39.36;33.36;101950.28;5088243;27;72712;-61
2023/09/04 06:54:38;;;;;;;;;11.00;11.00;;;;;40.20;29.92;101951.84;5087700;27;67539;-61
2023/09/04 06:57:04;;;;;;;;;8.50;8.25;;;;;40.93;30.95;101940.88;5093404;27;61059;-62
2023/09/04 06:59:29;;;;;;;;;10.25;8.25;;;;;41.61;28.74;101943.59;5083493;27;46542;-62
2023/09/04 07:01:54;;;;;;;;;8.75;8.75;;;;;42.04;27.29;101943.03;5090337;27;45536;-62
2023/09/04 07:04:20;;;;;;;;;9.00;9.00;;;;;42.09;25.30;101941.13;5089985;27;45438;-62
2023/09/04 07:06:45;;;;;;;;;9.75;8.75;;;;;42.09;26.56;101941.13;5094485;27;45527;-59
2023/09/04 07:09:10;;;;;;;;;8.50;8.50;;;;;42.68;24.83;101933.09;5085204;27;64397;-62
2023/09/04 07:11:36;;;;;;;;;12.50;9.25;;;;;42.94;25.49;101932.16;5088680;27;61226;-60
2023/09/04 07:14:02;;;;;;;;;9.75;8.25;;;;;42.47;24.72;101935.66;5090654;27;45601;-60
2023/09/04 07:16:27;;;;;;;;;8.50;7.25;;;;;39.70;25.83;101931.06;5089029;27;45518;-60
2023/09/04 07:18:52;;;;;;;;;7.75;7.75;;;;;36.76;28.68;101920.91;5090423;27;58432;-60
2023/09/04 07:21:18;;;;;;;;;9.75;8.00;;;;;36.40;29.66;101929.94;5078409;27;48106;-60
2023/09/04 07:23:43;;;;;;;;;9.25;7.75;;;;;37.70;27.74;101922.81;5070599;27;45527;-60
2023/09/04 07:26:08;;;;;;;;;9.00;7.00;;;;;39.02;26.04;101925.88;5081535;27;45761;-60
2023/09/04 07:28:34;;;;;;;;;7.25;7.25;;;;;40.20;26.52;101929.56;5096015;27;66038;-60
2023/09/04 07:31:29;;;;;;;;;9.25;9.25;;;;;41.19;24.97;101927.38;5088144;27;46877;-61
2023/09/04 07:33:54;;;;;;;;;9.25;7.75;;;;;41.02;24.97;101927.41;5051498;27;45528;-61
2023/09/04 07:36:20;;;;;;;;;10.25;9.75;;;;;40.13;24.67;101940.00;5090745;27;45535;-61
2023/09/04 07:38:46;;;;;;;;;5.00;5.00;;;;;37.83;26.80;101930.16;5087627;27;45472;-61
2023/09/04 07:41:11;;;;;;;;;13.00;9.00;;;;;35.25;29.03;101929.44;5080347;27;46278;-61
2023/09/04 07:43:37;;;;;;;;;8.00;7.50;;;;;32.93;31.39;101927.22;5088227;27;73047;-61
2023/09/04 07:46:03;;;;;;;;;8.25;8.25;;;;;31.21;34.48;101930.31;5070083;27;45422;-61
2023/09/04 07:48:28;;;;;;;;;10.00;8.75;;;;;29.80;37.77;101936.66;5086048;27;45549;-61
2023/09/04 07:50:54;;;;;;;;;6.75;6.75;;;;;28.64;38.91;101932.28;5086655;27;46126;-61
2023/09/04 07:53:20;;;;;;;;;9.33;9.33;;;;;27.70;40.01;101921.34;5086714;27;45667;-61
2023/09/04 07:55:46;;;;;;;;;8.25;7.00;;;;;27.06;42.04;101925.19;5086177;27;45483;-60
2023/09/04 07:58:12;;;;;;;;;8.25;8.00;;;;;26.62;43.60;101921.53;5089364;27;45281;-60
2023/09/04 08:00:46;;;;;;;;;7.00;7.00;;;;;26.27;44.28;101925.94;5071115;27;46058;-60
2023/09/04 08:03:11;;;;;;;;;10.25;8.25;;;;;25.98;45.16;101924.19;5091756;27;45347;-61
2023/09/04 08:05:36;;;;;;;;;8.33;8.33;;;;;25.80;44.89;101922.28;5082807;27;45683;-61
2023/09/04 08:08:03;;;;;;;;;5.75;5.75;;;;;25.58;46.41;101921.66;5085352;27;67363;-60
2023/09/04 08:10:28;;;;;;;;;8.25;7.25;;;;;25.32;47.81;101928.69;5089111;27;46788;-60
2023/09/04 08:12:53;;;;;;;;;9.50;9.50;;;;;24.94;49.95;101931.34;5081370;27;72662;-60
2023/09/04 08:15:19;;;;;;;;;11.00;8.00;;;;;24.77;49.01;101928.34;5080330;27;63476;-60
2023/09/04 08:17:45;;;;;;;;;9.25;9.00;;;;;24.63;48.38;101928.75;5089483;27;45343;-61
2023/09/04 08:20:11;;;;;;;;;7.50;7.50;;;;;24.53;50.27;101923.28;5079872;27;46443;-60
2023/09/04 08:22:37;;;;;;;;;10.67;7.00;;;;;24.46;49.56;101922.13;5082548;27;45645;-60
2023/09/04 08:25:02;;;;;;;;;7.50;7.50;;;;;24.39;51.97;101915.53;5079896;27;67610;-60
2023/09/04 08:27:28;;;;;;;;;9.25;8.25;;;;;24.27;51.40;101918.38;5084484;27;45390;-60
2023/09/04 08:29:53;;;;;;;;;7.25;7.25;;;;;24.19;50.78;101914.63;5088692;27;73447;-60
2023/09/04 08:32:18;;;;;;;;;10.00;7.67;;;;;24.18;51.00;101918.34;5079677;27;45466;-60
2023/09/04 08:34:44;;;;;;;;;11.33;9.00;;;;;24.13;52.01;101923.34;5071514;27;66645;-60
2023/09/04 08:37:10;;;;;;;;;8.00;8.00;;;;;24.12;51.28;101914.34;5073295;27;45630;-60
2023/09/04 08:39:35;;;;;;;;;9.33;9.33;;;;;24.15;53.26;101913.22;5082351;27;74335;-61
2023/09/04 08:42:02;;;;;;;;;9.00;9.00;;;;;24.07;53.60;101898.44;5085735;27;70153;-61
2023/09/04 08:44:29;;;;;;;;;9.00;8.67;;;;;24.05;52.63;101896.88;5083472;27;45251;-61
2023/09/04 08:46:56;;;;;;;;;8.33;8.00;;;;;24.08;53.33;101905.59;5072792;27;45524;-60
2023/09/04 08:49:24;;;;;;;;;11.25;8.25;;;;;24.14;52.87;101901.47;5063766;27;45465;-61
2023/09/04 08:51:51;;;;;;;;;10.00;9.00;;;;;24.41;52.47;101905.38;5062586;27;45407;-60
2023/09/04 08:54:16;;;;;;;;;7.50;7.50;;;;;26.75;52.24;101900.19;5049032;27;45541;-60
2023/09/04 08:56:41;;;;;;;;;6.00;6.00;;;;;30.57;46.28;101891.19;5094163;27;64084;-62
2023/09/04 08:59:07;;;;;;;;;10.00;8.00;;;;;33.90;39.42;101885.25;5071829;28;47113;-63
2023/09/04 09:01:33;;;;;;;;;11.25;10.25;;;;;36.49;33.81;101877.88;5088961;27;62494;-62
2023/09/04 09:04:01;;;;;;;;;7.00;5.75;;;;;38.48;32.76;101877.81;5063906;28;45851;-63
2023/09/04 09:06:27;;;;;;;;;8.25;7.00;;;;;39.84;29.09;101884.28;5088811;27;45648;-63
2023/09/04 09:08:54;;;;;;;;;7.75;7.75;;;;;40.94;29.26;101872.88;5066386;27;46063;-61
2023/09/04 09:11:19;;;;;;;;;5.25;2.00;;;;;41.87;28.27;101878.91;5068794;27;45477;-60
2023/09/04 09:13:47;;;;;;;;;10.00;7.00;;;;;42.14;26.28;101884.47;5057512;27;45441;-61
2023/09/04 09:16:19;;;;;;;;;8.00;8.00;;;;;42.65;25.63;101884.09;5094308;27;45585;-61
2023/09/04 09:18:46;;;;;;;;;9.75;7.75;;;;;43.19;23.61;101880.31;5086627;27;46365;-61
2023/09/04 09:21:27;;;;;;;;;5.00;5.00;;;;;43.63;23.85;101876.31;5079980;27;45467;-62
2023/09/04 09:24:16;;;;;;;;;6.00;6.00;;;;;44.32;24.24;101873.41;5086551;27;45221;-62
2023/09/04 09:26:44;;;;;;;;;7.50;7.00;;;;;44.77;21.38;101871.72;5088313;27;45526;-63
2023/09/04 09:29:12;;;;;;;;;7.50;7.50;;;;;45.26;20.58;101865.41;5069839;27;47971;-63
2023/09/04 09:31:38;;;;;;;;;7.75;7.00;;;;;45.49;21.89;101865.91;5091342;27;45375;-63
2023/09/04 09:34:04;;;;;;;;;4.00;3.50;;;;;45.90;20.82;101862.88;5091613;27;45454;-63
2023/09/04 09:36:30;;;;;;;;;6.50;6.00;;;;;46.00;21.23;101855.50;5091920;27;45987;-63
2023/09/04 09:38:55;;;;;;;;;6.25;6.25;;;;;46.33;20.16;101855.84;5097123;27;67526;-63
2023/09/04 09:41:21;;;;;;;;;10.50;10.50;;;;;46.48;19.68;101844.47;5072896;27;51325;-63
2023/09/04 09:43:46;;;;;;;;;4.50;4.50;;;;;46.21;20.41;101847.78;5067433;27;45438;-63
2023/09/04 09:46:16;;;;;;;;;6.25;6.00;;;;;45.65;19.93;101846.19;5081834;27;45673;-63
2023/09/04 09:48:42;;;;;;;;;7.50;5.00;;;;;45.08;19.74;101836.00;5087727;27;45629;-63
2023/09/04 09:51:10;;;;;;;;;8.50;8.25;;;;;44.89;20.53;101829.31;5092641;27;45761;-63
2023/09/04 09:53:49;;;;;;;;;7.00;6.25;;;;;45.30;20.54;101831.19;5083857;27;45413;-63
2023/09/04 09:56:17;;;;;;;;;8.00;6.25;;;;;45.18;20.40;101828.72;5077164;27;45632;-63
2023/09/04 09:58:46;;;;;;;;;6.50;6.50;;;;;44.99;20.43;101822.84;5082795;27;46951;-63
2023/09/04 10:01:12;;;;;;;;;5.75;4.75;;;;;45.47;21.23;101817.59;5086813;27;45351;-64
2023/09/04 10:03:38;;;;;;;;;8.00;7.75;;;;;45.85;20.08;101825.53;5084932;27;45432;-62
2023/09/04 10:06:07;;;;;;;;;5.00;5.00;;;;;46.06;20.20;101815.00;5068739;27;45487;-61
2023/09/04 10:08:44;;;;;;;;;5.00;5.00;;;;;45.60;20.00;101815.34;5058073;27;45671;-62
2023/09/04 10:11:14;;;;;;;;;6.25;6.25;;;;;44.93;20.05;101808.84;5076085;27;45532;-62
2023/09/04 10:14:03;;;;;;;;;6.50;6.50;;;;;44.40;21.01;101809.22;5063444;27;45814;-61
2023/09/04 10:16:33;;;;;;;;;5.75;5.25;;;;;44.12;20.33;101802.19;5065823;27;45510;-62
2023/09/04 10:19:02;;;;;;;;;7.00;5.00;;;;;44.25;21.12;101807.25;5087245;27;46465;-61
2023/09/04 10:21:33;;;;;;;;;6.25;6.25;;;;;44.44;21.18;101809.50;5082023;27;45547;-61
2023/09/04 10:24:02;;;;;;;;;7.25;6.25;;;;;44.46;21.45;101803.59;5085945;27;45325;-61
2023/09/04 10:26:45;;;;;;;;;6.50;5.00;;;;;44.42;21.54;101794.91;5085649;27;45808;-61
2023/09/04 10:29:11;;;;;;;;;4.50;4.50;;;;;44.47;20.74;101788.47;5086972;27;46890;-61
2023/09/04 10:31:37;;;;;;;;;6.25;4.75;;;;;44.65;21.47;101787.03;5070980;28;45571;-62
2023/09/04 10:34:03;;;;;;;;;6.00;5.00;;;;;44.84;20.36;101776.03;5086298;27;45476;-61
2023/09/04 10:36:30;;;;;;;;;6.00;4.75;;;;;44.87;20.55;101773.53;5092081;27;45647;-62
2023/09/04 10:38:56;;;;;;;;;3.75;3.75;;;;;44.68;20.82;101780.84;5091438;27;45458;-62
2023/09/04 10:41:22;;;;;;;;;6.75;6.75;;;;;44.38;21.44;101777.84;5092077;27;45429;-61
2023/09/04 10:43:47;;;;;;;;;3.50;3.50;;;;;44.12;21.06;101765.75;5086635;27;45386;-61
2023/09/04 10:46:13;;;;;;;;;6.00;4.75;;;;;43.63;20.77;101767.97;5079499;27;68147;-61
2023/09/04 10:48:47;;;;;;;;;7.00;5.75;;;;;43.41;21.54;101756.16;5065467;27;45482;-61
2023/09/04 10:51:33;;;;;;;;;6.75;5.50;;;;;43.18;22.68;101749.91;5085843;27;45421;-61
2023/09/04 10:54:03;;;;;;;;;4.25;4.25;;;;;42.94;22.39;101749.53;5082946;27;45714;-62
2023/09/04 10:56:35;;;;;;;;;5.25;5.25;;;;;43.01;22.35;101746.47;5063457;27;45324;-61
2023/09/04 10:59:02;;;;;;;;;5.25;5.25;;;;;42.91;22.25;101750.91;5067213;27;46243;-62
2023/09/04 11:01:38;;;;;;;;;7.00;5.50;;;;;42.42;22.76;101738.03;5083477;27;45516;-62
2023/09/04 11:04:05;;;;;;;;;5.25;5.25;;;;;42.02;23.02;101724.59;5093251;27;45478;-62
2023/09/04 11:07:12;;;;;;;;;4.00;4.00;;;;;41.48;23.39;101715.97;5090412;27;45460;-61
2023/09/04 11:09:37;;;;;;;;;7.00;7.00;;;;;41.26;24.03;101723.53;5088314;27;45695;-62
2023/09/04 11:12:03;;;;;;;;;5.00;5.00;;;;;41.25;23.51;101722.72;5085340;27;64205;-62
2023/09/04 11:14:32;;;;;;;;;5.00;5.00;;;;;41.26;23.85;101710.41;5093645;27;45496;-62